Wynyard, Canada
Current Conditions -  °F | °C
As of 7:00 AM on Thursday 23 Oct 2014 (Local Time) from CYQV Reporting Station
Clear Clear  
Wind Chill: 36°   Ceiling: Unl
Heat Index: 41°   Visibility: 9mi
Dew Point: 39°   Wind: 7mph
Humidity: 93%   Direction: 220°SW
Pressure: 29.73"   Gusts: NA
Location:  51.77°N, 104.18°W
Report Text: CYQV 231300Z AUTO 22006KT 9SM CLR 05/04 A2973 RMK SLP085
Loading
Personal Weather Stations






























Interactive Weather Map
Tropical Storm Tracking
New forecast layout! Learn more

10-Day Weather Forecast

Advertisements
Track Severe Weather on mobile